createdAt,value
2023-02-28T00:01:08.013Z,101608.16
2023-02-28T00:03:36.547Z,101618.19
2023-02-28T00:06:05.765Z,101614.69
2023-02-28T00:08:33.313Z,101608.50
2023-02-28T00:11:05.053Z,101622.34
2023-02-28T00:13:32.420Z,101624.50
2023-02-28T00:16:01.375Z,101625.53
2023-02-28T00:18:31.384Z,101631.03
2023-02-28T00:20:59.320Z,101627.91
2023-02-28T00:23:26.932Z,101625.66
2023-02-28T00:25:54.357Z,101626.75
2023-02-28T00:28:21.631Z,101619.34
2023-02-28T00:30:51.006Z,101618.81
2023-02-28T00:33:18.219Z,101613.13
2023-02-28T00:35:47.538Z,101611.94
2023-02-28T00:38:15.886Z,101607.97
2023-02-28T00:40:43.183Z,101616.59
2023-02-28T00:43:11.747Z,101615.47
2023-02-28T00:45:38.618Z,101617.81
2023-02-28T00:48:05.780Z,101627.19
2023-02-28T00:50:32.749Z,101615.88
2023-02-28T00:52:59.496Z,101619.91
2023-02-28T00:55:27.371Z,101618.28
2023-02-28T00:57:54.213Z,101605.34
2023-02-28T01:00:21.291Z,101607.88
2023-02-28T01:02:50.337Z,101600.25
2023-02-28T01:05:17.167Z,101606.59
2023-02-28T01:07:45.559Z,101596.63
2023-02-28T01:10:12.504Z,101595.13
2023-02-28T01:12:39.523Z,101597.25
2023-02-28T01:15:07.054Z,101602.72
2023-02-28T01:17:33.815Z,101601.41
2023-02-28T01:20:01.385Z,101606.03
2023-02-28T01:22:28.186Z,101606.97
2023-02-28T01:24:55.131Z,101592.47
2023-02-28T01:27:22.088Z,101596.84
2023-02-28T01:29:48.860Z,101591.75
2023-02-28T01:32:16.459Z,101596.78
2023-02-28T01:34:43.184Z,101595.97
2023-02-28T01:37:10.154Z,101592.41
2023-02-28T01:39:36.981Z,101577.63
2023-02-28T01:42:04.030Z,101584.25
2023-02-28T01:45:08.045Z,101583.50
2023-02-28T01:47:42.497Z,101584.41
2023-02-28T01:50:15.867Z,101585.63
2023-02-28T01:52:45.013Z,101585.00
2023-02-28T01:55:13.889Z,101576.97
2023-02-28T01:57:47.406Z,101587.38
2023-02-28T02:00:19.474Z,101592.16
2023-02-28T02:02:52.725Z,101597.63
2023-02-28T02:05:22.920Z,101593.56
2023-02-28T02:07:54.197Z,101596.28
2023-02-28T02:10:39.841Z,101596.91
2023-02-28T02:13:12.669Z,101604.69
2023-02-28T02:16:23.559Z,101606.59
2023-02-28T02:18:53.553Z,101609.22
2023-02-28T02:22:04.114Z,101607.78
2023-02-28T02:25:09.873Z,101603.16
2023-02-28T02:27:48.845Z,101608.19
2023-02-28T02:30:27.568Z,101608.91
2023-02-28T02:33:09.347Z,101599.75
2023-02-28T02:35:38.937Z,101606.59
2023-02-28T02:38:32.770Z,101595.84
2023-02-28T02:41:11.803Z,101591.94
2023-02-28T02:43:54.486Z,101596.53
2023-02-28T02:46:30.655Z,101598.06
2023-02-28T02:49:02.059Z,101593.84
2023-02-28T02:51:31.979Z,101608.66
2023-02-28T02:54:09.304Z,101604.06
2023-02-28T02:56:40.515Z,101609.88
2023-02-28T02:59:09.041Z,101603.91
2023-02-28T03:01:38.439Z,101607.13
2023-02-28T03:04:09.332Z,101604.63
2023-02-28T03:06:36.535Z,101602.50
2023-02-28T03:09:04.023Z,101601.88
2023-02-28T03:11:32.143Z,101602.50
2023-02-28T03:14:23.178Z,101603.00
2023-02-28T03:17:31.646Z,101596.28
2023-02-28T03:20:29.185Z,101592.34
2023-02-28T03:23:04.001Z,101599.31
2023-02-28T03:25:53.844Z,101597.47
2023-02-28T03:28:43.177Z,101596.00
2023-02-28T03:31:27.671Z,101591.38
2023-02-28T03:34:21.006Z,101592.31
2023-02-28T03:36:54.572Z,101588.44
2023-02-28T03:39:35.222Z,101587.13
2023-02-28T03:42:10.689Z,101588.19
2023-02-28T03:44:52.141Z,101591.50
2023-02-28T03:47:24.971Z,101584.03
2023-02-28T03:50:04.377Z,101592.78
2023-02-28T03:52:36.366Z,101594.34
2023-02-28T03:55:08.320Z,101600.72
2023-02-28T03:57:41.233Z,101610.50
2023-02-28T04:00:13.428Z,101600.47
2023-02-28T04:02:42.704Z,101603.25
2023-02-28T04:05:12.008Z,101600.91
2023-02-28T04:07:39.202Z,101594.59
2023-02-28T04:10:06.585Z,101589.38
2023-02-28T04:12:33.377Z,101594.53
2023-02-28T04:15:00.223Z,101586.59
2023-02-28T04:17:27.084Z,101592.81
2023-02-28T04:19:55.061Z,101593.28
2023-02-28T04:22:21.918Z,101592.56
2023-02-28T04:24:48.626Z,101593.97
2023-02-28T04:27:17.029Z,101603.38
2023-02-28T04:29:45.648Z,101600.44
2023-02-28T04:32:12.686Z,101594.72
2023-02-28T04:34:40.012Z,101603.69
2023-02-28T04:37:13.334Z,101606.47
2023-02-28T04:39:41.728Z,101594.84
2023-02-28T04:42:08.928Z,101598.59
2023-02-28T04:44:35.754Z,101593.38
2023-02-28T04:47:02.501Z,101598.84
2023-02-28T04:49:29.280Z,101599.72
2023-02-28T04:51:56.762Z,101609.34
2023-02-28T04:54:23.568Z,101606.25
2023-02-28T04:56:50.998Z,101607.31
2023-02-28T04:59:18.332Z,101610.91
2023-02-28T05:01:50.062Z,101619.44
2023-02-28T05:04:17.346Z,101615.22
2023-02-28T05:06:44.255Z,101621.88
2023-02-28T05:09:13.796Z,101620.59
2023-02-28T05:11:40.959Z,101622.69
2023-02-28T05:14:12.859Z,101613.63
2023-02-28T05:16:40.447Z,101622.34
2023-02-28T05:19:07.277Z,101614.19
2023-02-28T05:21:42.630Z,101620.06
2023-02-28T05:24:13.167Z,101621.25
2023-02-28T05:26:42.524Z,101629.84
2023-02-28T05:29:10.012Z,101624.50
2023-02-28T05:31:37.600Z,101619.50
2023-02-28T05:34:07.278Z,101622.22
2023-02-28T05:36:37.522Z,101610.53
2023-02-28T05:39:04.441Z,101616.03
2023-02-28T05:41:31.564Z,101623.22
2023-02-28T05:43:59.239Z,101626.84
2023-02-28T05:46:26.017Z,101629.53
2023-02-28T05:48:52.884Z,101624.13
2023-02-28T05:51:19.700Z,101630.47
2023-02-28T05:53:46.807Z,101626.50
2023-02-28T05:56:13.645Z,101623.72
2023-02-28T05:58:40.376Z,101620.03
2023-02-28T06:01:32.019Z,101618.16
2023-02-28T06:04:01.176Z,101622.69
2023-02-28T06:06:28.185Z,101608.16
2023-02-28T06:08:55.127Z,101612.50
2023-02-28T06:11:22.172Z,101611.06
2023-02-28T06:13:48.914Z,101614.59
2023-02-28T06:16:15.703Z,101612.41
2023-02-28T06:18:42.751Z,101616.94
2023-02-28T06:21:10.035Z,101613.63
2023-02-28T06:23:36.851Z,101612.72
2023-02-28T06:26:03.691Z,101614.25
2023-02-28T06:28:30.771Z,101617.75
2023-02-28T06:30:57.778Z,101609.41
2023-02-28T06:33:24.513Z,101613.78
2023-02-28T06:35:52.588Z,101620.81
2023-02-28T06:38:19.926Z,101621.94
2023-02-28T06:40:55.397Z,101617.81
2023-02-28T06:43:23.135Z,101619.69
2023-02-28T06:45:50.326Z,101625.75
2023-02-28T06:48:17.852Z,101638.53
2023-02-28T06:50:44.550Z,101647.03
2023-02-28T06:53:11.270Z,101650.50
2023-02-28T06:55:39.785Z,101637.81
2023-02-28T06:58:16.249Z,101641.38
2023-02-28T07:00:44.824Z,101644.75
2023-02-28T07:03:12.889Z,101645.56
2023-02-28T07:05:40.660Z,101651.41
2023-02-28T07:08:07.352Z,101642.69
2023-02-28T07:10:34.552Z,101650.56
2023-02-28T07:13:01.520Z,101655.88
2023-02-28T07:15:28.321Z,101656.09
2023-02-28T07:17:55.048Z,101659.59
2023-02-28T07:20:21.928Z,101667.41
2023-02-28T07:22:56.097Z,101664.84
2023-02-28T07:25:29.014Z,101674.22
2023-02-28T07:27:57.174Z,101669.38
2023-02-28T07:30:24.009Z,101674.69
2023-02-28T07:32:50.856Z,101665.38
2023-02-28T07:35:17.656Z,101672.53
2023-02-28T07:37:44.476Z,101670.13
2023-02-28T07:40:12.798Z,101671.16
2023-02-28T07:42:40.538Z,101664.53
2023-02-28T07:45:08.986Z,101667.16
2023-02-28T07:47:35.738Z,101658.88
2023-02-28T07:50:02.471Z,101664.06
2023-02-28T07:52:29.241Z,101665.06
2023-02-28T07:54:55.967Z,101663.53
2023-02-28T07:57:22.656Z,101664.56
2023-02-28T07:59:49.472Z,101669.88
2023-02-28T08:02:17.845Z,101662.44
2023-02-28T08:04:45.115Z,101665.94
2023-02-28T08:07:14.138Z,101673.06
2023-02-28T08:09:41.921Z,101672.88
2023-02-28T08:12:09.062Z,101664.25
2023-02-28T08:14:46.274Z,101665.00
2023-02-28T08:17:13.678Z,101639.66
2023-02-28T08:19:40.442Z,101664.41
2023-02-28T08:22:07.303Z,101670.31
2023-02-28T08:24:34.366Z,101676.72
2023-02-28T08:27:01.209Z,101675.03
2023-02-28T08:29:28.056Z,101680.41
2023-02-28T08:31:54.892Z,101678.72
2023-02-28T08:34:22.102Z,101683.81
2023-02-28T08:36:48.970Z,101689.88
2023-02-28T08:39:15.704Z,101692.47
2023-02-28T08:41:43.567Z,101692.63
2023-02-28T08:44:10.354Z,101693.84
2023-02-28T08:46:37.174Z,101701.69
2023-02-28T08:49:04.297Z,101701.69
2023-02-28T08:51:31.944Z,101698.13
2023-02-28T08:54:02.188Z,101702.66
2023-02-28T08:56:30.074Z,101695.94
2023-02-28T08:58:58.120Z,101700.59
2023-02-28T09:01:30.640Z,101707.59
2023-02-28T09:03:58.712Z,101707.19
2023-02-28T09:06:28.212Z,101703.03
2023-02-28T09:08:59.446Z,101697.09
2023-02-28T09:11:26.412Z,101690.50
2023-02-28T09:13:53.164Z,101690.81
2023-02-28T09:16:20.714Z,101689.13
2023-02-28T09:18:47.710Z,101686.44
2023-02-28T09:21:18.721Z,101685.66
2023-02-28T09:23:47.178Z,101685.09
2023-02-28T09:26:21.355Z,101682.00
2023-02-28T09:28:48.184Z,101670.41
2023-02-28T09:31:23.236Z,101663.41
2023-02-28T09:33:52.633Z,101671.06
2023-02-28T09:36:20.406Z,101670.56
2023-02-28T09:38:48.936Z,101668.88
2023-02-28T09:41:48.168Z,101670.13
2023-02-28T09:44:23.909Z,101671.69
2023-02-28T09:46:56.922Z,101667.88
2023-02-28T09:49:34.330Z,101669.31
2023-02-28T09:52:06.534Z,101671.88
2023-02-28T09:54:34.240Z,101650.69
2023-02-28T09:57:15.094Z,101666.09
2023-02-28T10:00:02.558Z,101669.69
2023-02-28T10:03:24.775Z,101674.19
2023-02-28T10:06:11.611Z,101674.06
2023-02-28T10:08:46.631Z,101666.09
2023-02-28T10:11:17.724Z,101661.38
2023-02-28T10:14:05.703Z,101661.78
2023-02-28T10:16:47.605Z,101655.31
2023-02-28T10:19:19.160Z,101651.28
2023-02-28T10:22:03.091Z,101653.81
2023-02-28T10:24:38.732Z,101640.13
2023-02-28T10:27:19.620Z,101632.00
2023-02-28T10:29:52.678Z,101635.47
2023-02-28T10:32:23.971Z,101630.31
2023-02-28T10:35:00.724Z,101641.16
2023-02-28T10:37:28.975Z,101644.56
2023-02-28T10:39:56.340Z,101639.06
2023-02-28T10:42:27.553Z,101635.75
2023-02-28T10:45:28.110Z,101628.28
2023-02-28T10:48:20.427Z,101632.75
2023-02-28T10:50:53.041Z,101634.34
2023-02-28T10:53:25.893Z,101642.81
2023-02-28T10:56:02.835Z,101638.50
2023-02-28T10:58:58.890Z,101633.38
2023-02-28T11:01:49.936Z,101636.09
2023-02-28T11:04:30.373Z,101645.06
2023-02-28T11:07:02.842Z,101634.38
2023-02-28T11:09:36.753Z,101621.06
2023-02-28T11:12:06.906Z,101630.22
2023-02-28T11:14:53.302Z,101630.69
2023-02-28T11:17:28.733Z,101631.72
2023-02-28T11:19:59.563Z,101631.91
2023-02-28T11:22:31.983Z,101623.88
2023-02-28T11:25:03.015Z,101622.63
2023-02-28T11:27:32.919Z,101624.44
2023-02-28T11:30:00.926Z,101629.81
2023-02-28T11:32:31.471Z,101615.97
2023-02-28T11:35:30.762Z,101615.16
2023-02-28T11:37:58.976Z,101604.69
2023-02-28T11:40:56.541Z,101600.00
2023-02-28T11:43:41.922Z,101611.59
2023-02-28T11:46:30.607Z,101599.44
2023-02-28T11:49:36.884Z,101604.41
2023-02-28T11:52:11.897Z,101601.06
2023-02-28T11:54:44.575Z,101597.59
2023-02-28T11:57:21.047Z,101590.69
2023-02-28T11:59:57.723Z,101584.59
2023-02-28T12:02:31.727Z,101582.75
2023-02-28T12:04:58.447Z,101576.16
2023-02-28T12:07:33.990Z,101575.03
2023-02-28T12:10:06.636Z,101566.84
2023-02-28T12:12:42.473Z,101567.78
2023-02-28T12:15:09.371Z,101558.09
2023-02-28T12:17:48.012Z,101561.13
2023-02-28T12:20:14.831Z,101553.66
2023-02-28T12:23:22.962Z,101546.75
2023-02-28T12:25:55.000Z,101547.59
2023-02-28T12:28:32.471Z,101536.53
2023-02-28T12:31:09.702Z,101536.84
2023-02-28T12:33:40.594Z,101539.66
2023-02-28T12:36:16.489Z,101526.97
2023-02-28T12:38:56.651Z,101519.25
2023-02-28T12:41:47.131Z,101516.69
2023-02-28T12:44:30.412Z,101511.72
2023-02-28T12:47:02.426Z,101515.25
2023-02-28T12:49:35.135Z,101509.31
2023-02-28T12:52:04.057Z,101505.91
2023-02-28T12:54:51.755Z,101499.03
2023-02-28T12:57:33.899Z,101493.91
2023-02-28T13:00:31.749Z,101477.69
2023-02-28T13:03:31.435Z,101471.78
2023-02-28T13:06:22.961Z,101471.81
2023-02-28T13:09:11.228Z,101478.03
2023-02-28T13:11:47.022Z,101474.69
2023-02-28T13:14:31.498Z,101474.66
2023-02-28T13:16:59.094Z,101474.75
2023-02-28T13:19:32.224Z,101473.88
2023-02-28T13:22:00.490Z,101458.56
2023-02-28T13:25:05.732Z,101462.94
2023-02-28T13:27:39.019Z,101460.97
2023-02-28T13:30:43.476Z,101457.78
2023-02-28T13:33:34.523Z,101448.47
2023-02-28T13:36:19.643Z,101452.69
2023-02-28T13:38:48.982Z,101451.00
2023-02-28T13:41:31.242Z,101451.91
2023-02-28T13:44:10.555Z,101451.19
2023-02-28T13:46:57.298Z,101446.91
2023-02-28T13:49:24.198Z,101455.47
2023-02-28T13:51:52.125Z,101450.13
2023-02-28T13:54:51.043Z,101442.03
2023-02-28T13:57:42.698Z,101442.63
2023-02-28T14:00:27.775Z,101435.34
2023-02-28T14:03:22.569Z,101440.63
2023-02-28T14:06:18.132Z,101436.28
2023-02-28T14:09:01.675Z,101437.06
2023-02-28T14:11:30.796Z,101438.00
2023-02-28T14:13:58.000Z,101427.59
2023-02-28T14:16:28.446Z,101422.63
2023-02-28T14:19:10.579Z,101422.59
2023-02-28T14:21:44.526Z,101407.38
2023-02-28T14:24:26.248Z,101407.38
2023-02-28T14:27:30.631Z,101404.72
2023-02-28T14:30:16.038Z,101406.03
2023-02-28T14:32:49.141Z,101404.75
2023-02-28T14:35:41.056Z,101401.47
2023-02-28T14:38:34.105Z,101402.34
2023-02-28T14:41:05.649Z,101395.38
2023-02-28T14:43:33.205Z,101394.69
2023-02-28T14:46:03.243Z,101393.03
2023-02-28T14:48:30.515Z,101389.50
2023-02-28T14:51:02.048Z,101391.09
2023-02-28T14:53:31.582Z,101395.25
2023-02-28T14:55:58.401Z,101384.97
2023-02-28T14:58:33.482Z,101386.63
2023-02-28T15:01:03.089Z,101393.28
2023-02-28T15:03:32.828Z,101386.38
2023-02-28T15:06:05.883Z,101381.25
2023-02-28T15:08:37.307Z,101389.81
2023-02-28T15:11:20.325Z,101382.88
2023-02-28T15:13:57.999Z,101379.31
2023-02-28T15:16:39.925Z,101381.06
2023-02-28T15:19:16.226Z,101379.31
2023-02-28T15:21:46.590Z,101386.25
2023-02-28T15:24:48.048Z,101376.78
2023-02-28T15:27:22.173Z,101368.97
2023-02-28T15:29:53.083Z,101360.34
2023-02-28T15:32:27.937Z,101366.25
2023-02-28T15:34:55.683Z,101372.03
2023-02-28T15:37:42.318Z,101373.56
2023-02-28T15:40:25.493Z,101372.34
2023-02-28T15:43:04.700Z,101379.09
2023-02-28T15:45:53.717Z,101372.06
2023-02-28T15:48:32.196Z,101373.56
2023-02-28T15:51:23.909Z,101377.75
2023-02-28T15:54:29.233Z,101355.78
2023-02-28T15:57:09.536Z,101360.94
2023-02-28T15:59:37.801Z,101375.41
2023-02-28T16:02:10.996Z,101372.19
2023-02-28T16:04:38.674Z,101376.59
2023-02-28T16:07:07.543Z,101382.72
2023-02-28T16:09:35.340Z,101380.78
2023-02-28T16:12:06.529Z,101394.22
2023-02-28T16:14:33.456Z,101392.31
2023-02-28T16:17:06.357Z,101399.41
2023-02-28T16:19:34.705Z,101394.47
2023-02-28T16:22:02.122Z,101382.91
2023-02-28T16:24:29.101Z,101387.56
2023-02-28T16:26:58.068Z,101391.69
2023-02-28T16:29:29.844Z,101399.00
2023-02-28T16:31:57.108Z,101396.06
2023-02-28T16:34:24.989Z,101398.13
2023-02-28T16:36:52.297Z,101397.19
2023-02-28T16:39:21.749Z,101399.00
2023-02-28T16:41:53.011Z,101399.97
2023-02-28T16:44:30.493Z,101403.91
2023-02-28T16:46:57.420Z,101399.34
2023-02-28T16:49:24.280Z,101412.91
2023-02-28T16:51:51.119Z,101410.91
2023-02-28T16:54:17.888Z,101411.75
2023-02-28T16:56:48.031Z,101412.25
2023-02-28T16:59:19.064Z,101421.47
2023-02-28T17:01:45.953Z,101415.91
2023-02-28T17:04:13.129Z,101420.72
2023-02-28T17:06:41.089Z,101420.53
2023-02-28T17:09:16.999Z,101425.59
2023-02-28T17:11:45.457Z,101430.72
2023-02-28T17:14:12.279Z,101427.19
2023-02-28T17:16:43.238Z,101432.38
2023-02-28T17:19:14.570Z,101433.88
2023-02-28T17:21:45.012Z,101426.34
2023-02-28T17:24:22.195Z,101441.50
2023-02-28T17:26:56.851Z,101441.84
2023-02-28T17:29:25.778Z,101449.09
2023-02-28T17:31:52.875Z,101448.94
2023-02-28T17:34:20.789Z,101448.03
2023-02-28T17:36:49.499Z,101446.13
2023-02-28T17:39:24.824Z,101445.44
2023-02-28T17:41:56.264Z,101443.38
2023-02-28T17:44:25.032Z,101453.00
2023-02-28T17:46:52.946Z,101453.69
2023-02-28T17:49:20.506Z,101463.94
2023-02-28T17:51:48.814Z,101472.84
2023-02-28T17:54:18.297Z,101485.53
2023-02-28T17:56:46.062Z,101480.53
2023-02-28T17:59:13.834Z,101487.47
2023-02-28T18:01:40.806Z,101480.53
2023-02-28T18:04:07.772Z,101484.03
2023-02-28T18:06:47.567Z,101482.19
2023-02-28T18:09:16.723Z,101482.31
2023-02-28T18:11:46.199Z,101475.56
2023-02-28T18:14:13.438Z,101481.16
2023-02-28T18:16:40.368Z,101481.81
2023-02-28T18:19:08.673Z,101473.19
2023-02-28T18:21:36.596Z,101460.41
2023-02-28T18:24:03.911Z,101467.69
2023-02-28T18:26:31.078Z,101480.38
2023-02-28T18:28:58.416Z,101468.47
2023-02-28T18:31:25.816Z,101464.97
2023-02-28T18:33:53.710Z,101459.75
2023-02-28T18:36:22.101Z,101452.78
2023-02-28T18:38:53.271Z,101453.84
2023-02-28T18:41:21.948Z,101460.50
2023-02-28T18:43:52.094Z,101457.66
2023-02-28T18:46:20.265Z,101455.34
2023-02-28T18:48:48.544Z,101455.94
2023-02-28T18:51:20.097Z,101448.69
2023-02-28T18:53:47.646Z,101455.53
2023-02-28T18:56:18.237Z,101456.66
2023-02-28T18:58:45.606Z,101456.59
2023-02-28T19:01:17.091Z,101461.06
2023-02-28T19:03:45.520Z,101464.34
2023-02-28T19:06:12.458Z,101464.69
2023-02-28T19:08:39.681Z,101464.75
2023-02-28T19:11:14.741Z,101453.06
2023-02-28T19:13:42.793Z,101452.19
2023-02-28T19:16:11.815Z,101457.53
2023-02-28T19:18:39.659Z,101462.69
2023-02-28T19:21:08.106Z,101454.28
2023-02-28T19:23:36.614Z,101440.88
2023-02-28T19:26:12.904Z,101456.41
2023-02-28T19:28:40.574Z,101444.44
2023-02-28T19:31:19.516Z,101440.91
2023-02-28T19:33:46.642Z,101443.41
2023-02-28T19:36:15.084Z,101450.88
2023-02-28T19:38:42.669Z,101451.56
2023-02-28T19:41:11.412Z,101448.81
2023-02-28T19:43:39.532Z,101439.91
2023-02-28T19:46:07.636Z,101442.47
2023-02-28T19:48:34.724Z,101444.81
2023-02-28T19:51:07.427Z,101441.47
2023-02-28T19:53:36.247Z,101432.97
2023-02-28T19:56:06.668Z,101431.91
2023-02-28T19:58:34.157Z,101427.19
2023-02-28T20:01:20.754Z,101423.16
2023-02-28T20:03:49.861Z,101418.16
2023-02-28T20:06:17.591Z,101418.81
2023-02-28T20:08:44.886Z,101424.66
2023-02-28T20:11:15.249Z,101420.13
2023-02-28T20:13:43.125Z,101421.06
2023-02-28T20:16:12.167Z,101406.66
2023-02-28T20:18:40.265Z,101415.34
2023-02-28T20:21:12.050Z,101417.69
2023-02-28T20:23:43.486Z,101418.81
2023-02-28T20:26:12.965Z,101428.75
2023-02-28T20:28:40.225Z,101429.25
2023-02-28T20:31:16.164Z,101428.56
2023-02-28T20:33:46.531Z,101423.88
2023-02-28T20:36:15.984Z,101430.16
2023-02-28T20:38:43.549Z,101432.22
2023-02-28T20:41:10.775Z,101439.72
2023-02-28T20:43:38.784Z,101441.56
2023-02-28T20:46:07.111Z,101448.25
2023-02-28T20:48:36.571Z,101430.53
2023-02-28T20:51:05.327Z,101448.59
2023-02-28T20:53:34.491Z,101451.06
2023-02-28T20:56:13.908Z,101452.72
2023-02-28T20:58:41.214Z,101451.03
2023-02-28T21:01:16.420Z,101453.22
2023-02-28T21:03:49.955Z,101452.53
2023-02-28T21:06:20.217Z,101466.03
2023-02-28T21:08:47.651Z,101460.53
2023-02-28T21:11:21.950Z,101470.22
2023-02-28T21:13:49.273Z,101471.72
2023-02-28T21:16:18.686Z,101463.69
2023-02-28T21:18:46.305Z,101461.78
2023-02-28T21:21:15.783Z,101462.47
2023-02-28T21:23:43.235Z,101464.25
2023-02-28T21:26:12.326Z,101465.56
2023-02-28T21:28:44.253Z,101471.34
2023-02-28T21:31:14.937Z,101456.41
2023-02-28T21:33:43.052Z,101466.38
2023-02-28T21:36:13.498Z,101457.13
2023-02-28T21:38:41.990Z,101449.66
2023-02-28T21:41:12.378Z,101451.63
2023-02-28T21:43:40.057Z,101453.91
2023-02-28T21:46:10.134Z,101449.38
2023-02-28T21:48:39.281Z,101450.53
2023-02-28T21:51:10.956Z,101456.66
2023-02-28T21:53:39.338Z,101451.03
2023-02-28T21:56:11.557Z,101446.47
2023-02-28T21:58:38.761Z,101439.78
2023-02-28T22:01:26.035Z,101433.59
2023-02-28T22:03:53.072Z,101433.06
2023-02-28T22:06:22.618Z,101434.84
2023-02-28T22:08:54.838Z,101432.28
2023-02-28T22:11:25.590Z,101436.22
2023-02-28T22:13:55.989Z,101430.19
2023-02-28T22:16:25.234Z,101446.75
2023-02-28T22:18:52.454Z,101443.81
2023-02-28T22:21:20.470Z,101438.91
2023-02-28T22:23:48.260Z,101442.63
2023-02-28T22:26:18.973Z,101435.22
2023-02-28T22:28:46.316Z,101431.94
2023-02-28T22:31:19.333Z,101422.25
2023-02-28T22:33:48.087Z,101417.31
2023-02-28T22:36:17.282Z,101417.66
2023-02-28T22:38:45.632Z,101416.25
2023-02-28T22:41:13.117Z,101419.81
2023-02-28T22:43:41.744Z,101419.06
2023-02-28T22:46:11.606Z,101414.19
2023-02-28T22:48:39.574Z,101406.03
2023-02-28T22:51:12.673Z,101419.13
2023-02-28T22:53:39.774Z,101416.53
2023-02-28T22:56:07.821Z,101411.97
2023-02-28T22:58:34.812Z,101410.22
2023-02-28T23:01:10.061Z,101410.16
2023-02-28T23:03:38.135Z,101407.47
2023-02-28T23:06:22.988Z,101404.06
2023-02-28T23:08:51.764Z,101398.91
2023-02-28T23:11:25.595Z,101402.06
2023-02-28T23:13:58.896Z,101402.66
2023-02-28T23:16:26.493Z,101405.78
2023-02-28T23:18:53.509Z,101405.19
2023-02-28T23:21:20.736Z,101396.34
2023-02-28T23:23:47.672Z,101391.25
2023-02-28T23:26:14.496Z,101397.25
2023-02-28T23:28:41.259Z,101397.09
2023-02-28T23:31:08.384Z,101404.16
2023-02-28T23:33:35.157Z,101396.47
2023-02-28T23:36:15.161Z,101398.34
2023-02-28T23:38:46.491Z,101396.91
2023-02-28T23:41:14.416Z,101396.84
2023-02-28T23:43:41.126Z,101392.66
2023-02-28T23:46:09.507Z,101390.16
2023-02-28T23:48:36.594Z,101391.78
2023-02-28T23:51:08.665Z,101386.97
2023-02-28T23:53:41.119Z,101383.22
2023-02-28T23:56:09.898Z,101375.47
2023-02-28T23:58:41.085Z,101374.50
